createdAt,value
2023-02-23T00:01:14.229Z,67.5
2023-02-23T00:03:11.416Z,61.9
2023-02-23T00:05:11.009Z,64.7
2023-02-23T00:07:10.797Z,62.4
2023-02-23T00:09:20.738Z,60.1
2023-02-23T00:11:11.017Z,62.3
2023-02-23T00:13:10.124Z,61.2
2023-02-23T00:15:10.799Z,59.1
2023-02-23T00:17:13.214Z,61.9
2023-02-23T00:19:08.553Z,56.3
2023-02-23T00:21:08.084Z,56.5
2023-02-23T00:23:08.072Z,57.7
2023-02-23T00:25:09.455Z,56.8
2023-02-23T00:27:07.134Z,57.0
2023-02-23T00:29:10.183Z,56.4
2023-02-23T00:31:06.753Z,59.4
2023-02-23T00:33:06.504Z,54.7
2023-02-23T00:35:10.490Z,53.6
2023-02-23T00:37:07.577Z,52.2
2023-02-23T00:39:17.117Z,55.6
2023-02-23T00:41:06.127Z,54.0
2023-02-23T00:43:04.320Z,53.7
2023-02-23T00:45:10.025Z,53.9
2023-02-23T00:47:03.652Z,52.8
2023-02-23T00:49:04.195Z,55.0
2023-02-23T00:51:04.702Z,55.1
2023-02-23T00:53:03.945Z,51.9
2023-02-23T00:55:03.019Z,51.6
2023-02-23T00:57:01.786Z,51.2
2023-02-23T00:59:01.536Z,50.0
2023-02-23T01:01:01.251Z,49.3
2023-02-23T01:03:00.885Z,51.9
2023-02-23T01:05:00.351Z,49.1
2023-02-23T01:07:03.121Z,49.8
2023-02-23T01:09:04.278Z,51.2
2023-02-23T01:11:05.922Z,49.4
2023-02-23T01:12:59.059Z,47.3
2023-02-23T01:14:58.724Z,51.6
2023-02-23T01:16:59.399Z,47.9
2023-02-23T01:19:00.894Z,49.4
2023-02-23T01:38:56.100Z,46.4
2023-02-23T01:40:54.488Z,45.4
2023-02-23T01:42:56.222Z,45.0
2023-02-23T01:45:13.431Z,44.6
2023-02-23T01:48:55.623Z,44.3
2023-02-23T01:50:56.189Z,44.2
2023-02-23T01:52:53.962Z,42.3
2023-02-23T01:54:54.930Z,44.4
2023-02-23T01:58:54.689Z,39.9
2023-02-23T02:00:54.894Z,42.4
2023-02-23T02:02:51.308Z,42.4
2023-02-23T02:04:51.177Z,41.7
2023-02-23T02:06:54.352Z,42.4
2023-02-23T02:10:54.934Z,41.6
2023-02-23T02:12:53.517Z,41.8
2023-02-23T02:14:51.007Z,37.3
2023-02-23T02:17:02.591Z,40.3
2023-02-23T02:19:02.295Z,37.7
2023-02-23T02:21:07.082Z,42.2
2023-02-23T02:23:08.725Z,37.4
2023-02-23T02:25:10.312Z,38.8
2023-02-23T02:27:00.338Z,39.4
2023-02-23T02:29:05.933Z,40.4
2023-02-23T02:31:05.759Z,41.9
2023-02-23T02:33:02.559Z,40.1
2023-02-23T02:35:02.032Z,41.6
2023-02-23T02:37:04.584Z,41.8
2023-02-23T02:40:52.341Z,37.9
2023-02-23T02:42:55.208Z,45.6
2023-02-23T02:44:53.904Z,41.2
2023-02-23T02:46:48.148Z,41.5
2023-02-23T02:48:49.437Z,40.9
2023-02-23T02:52:46.505Z,44.4
2023-02-23T02:54:48.036Z,40.0
2023-02-23T02:56:43.686Z,44.2
2023-02-23T02:58:42.632Z,39.2
2023-02-23T03:00:54.069Z,37.6
2023-02-23T03:02:50.558Z,40.6
2023-02-23T03:04:50.191Z,41.6
2023-02-23T03:06:56.398Z,39.6
2023-02-23T03:08:55.801Z,39.5
2023-02-23T03:10:55.543Z,38.5
2023-02-23T03:12:54.771Z,41.6
2023-02-23T03:14:58.255Z,39.5
2023-02-23T03:16:56.306Z,38.8
2023-02-23T03:19:01.995Z,37.5
2023-02-23T03:20:52.963Z,36.8
2023-02-23T03:22:56.315Z,36.2
2023-02-23T03:24:51.583Z,37.4
2023-02-23T03:26:49.571Z,36.7
2023-02-23T03:28:54.430Z,38.1
2023-02-23T03:30:56.960Z,37.2
2023-02-23T03:32:50.810Z,37.1
2023-02-23T03:34:50.051Z,36.8
2023-02-23T03:38:49.181Z,43.3
2023-02-23T03:40:47.680Z,41.2
2023-02-23T03:42:46.503Z,44.5
2023-02-23T03:44:48.507Z,44.8
2023-02-23T03:46:45.524Z,46.2
2023-02-23T03:48:45.317Z,52.4
2023-02-23T03:50:50.018Z,56.2
2023-02-23T03:52:48.717Z,54.1
2023-02-23T03:54:46.704Z,63.9
2023-02-23T03:56:45.257Z,72.7
2023-02-23T03:58:46.873Z,68.6
2023-02-23T04:00:45.679Z,70.2
2023-02-23T04:02:44.973Z,71.8
2023-02-23T04:04:40.891Z,74.2
2023-02-23T04:06:45.336Z,77.1
2023-02-23T04:10:40.337Z,76.2
2023-02-23T04:12:45.006Z,76.5
2023-02-23T04:14:35.570Z,72.7
2023-02-23T04:16:29.652Z,75.7
2023-02-23T04:18:30.328Z,70.8
2023-02-23T04:20:27.418Z,69.2
2023-02-23T04:22:27.007Z,68.8
2023-02-23T04:24:26.701Z,75.7
2023-02-23T04:26:26.565Z,65.4
2023-02-23T04:28:27.219Z,64.0
2023-02-23T04:30:27.391Z,64.8
2023-02-23T04:32:25.310Z,64.7
2023-02-23T04:34:24.924Z,63.8
2023-02-23T04:36:25.810Z,61.8
2023-02-23T04:38:24.497Z,59.9
2023-02-23T04:40:25.086Z,61.4
2023-02-23T04:42:23.481Z,62.1
2023-02-23T04:44:23.177Z,57.8
2023-02-23T04:46:22.869Z,56.8
2023-02-23T04:48:24.112Z,54.9
2023-02-23T04:50:22.791Z,60.0
2023-02-23T04:52:21.890Z,54.8
2023-02-23T04:54:21.440Z,52.4
2023-02-23T04:56:21.040Z,55.4
2023-02-23T04:58:20.796Z,53.4
2023-02-23T05:00:20.587Z,49.5
2023-02-23T05:02:20.469Z,49.4
2023-02-23T05:04:19.681Z,50.5
2023-02-23T05:06:20.033Z,53.8
2023-02-23T05:08:19.067Z,51.7
2023-02-23T05:10:18.775Z,47.8
2023-02-23T05:12:18.632Z,47.5
2023-02-23T05:14:18.395Z,51.3
2023-02-23T05:16:17.703Z,50.5
2023-02-23T05:18:17.386Z,47.8
2023-02-23T05:20:17.156Z,47.7
2023-02-23T05:22:16.688Z,47.1
2023-02-23T05:24:16.642Z,48.4
2023-02-23T05:26:16.403Z,45.0
2023-02-23T05:28:15.653Z,45.9
2023-02-23T05:30:15.572Z,46.9
2023-02-23T05:32:14.943Z,43.8
2023-02-23T05:34:15.878Z,42.6
2023-02-23T05:36:16.730Z,41.5
2023-02-23T05:38:14.033Z,40.7
2023-02-23T05:40:13.957Z,39.5
2023-02-23T05:42:13.001Z,43.2
2023-02-23T05:44:12.996Z,39.5
2023-02-23T05:46:15.413Z,42.8
2023-02-23T05:48:12.437Z,46.6
2023-02-23T05:50:11.881Z,45.0
2023-02-23T05:52:11.465Z,44.5
2023-02-23T05:54:12.516Z,40.9
2023-02-23T05:56:13.180Z,44.2
2023-02-23T05:58:10.283Z,44.7
2023-02-23T06:00:12.455Z,45.5
2023-02-23T06:02:09.757Z,48.7
2023-02-23T06:04:09.506Z,45.6
2023-02-23T06:06:08.872Z,47.2
2023-02-23T06:08:08.686Z,49.0
2023-02-23T06:10:09.027Z,50.3
2023-02-23T06:12:08.172Z,49.0
2023-02-23T06:14:07.809Z,51.8
2023-02-23T06:16:08.080Z,49.2
2023-02-23T06:18:08.067Z,49.8
2023-02-23T06:20:07.363Z,54.4
2023-02-23T06:22:06.215Z,54.9
2023-02-23T06:24:06.152Z,53.1
2023-02-23T06:26:07.350Z,54.7
2023-02-23T06:28:06.633Z,52.6
2023-02-23T06:30:05.976Z,55.7
2023-02-23T06:32:05.016Z,58.7
2023-02-23T06:34:04.194Z,52.9
2023-02-23T06:36:04.699Z,56.7
2023-02-23T06:38:04.681Z,55.7
2023-02-23T06:40:03.802Z,53.9
2023-02-23T06:42:02.981Z,54.5
2023-02-23T06:44:02.370Z,54.8
2023-02-23T06:46:03.617Z,56.5
2023-02-23T06:48:01.703Z,54.0
2023-02-23T06:50:03.040Z,58.7
2023-02-23T06:52:00.987Z,58.3
2023-02-23T06:54:00.542Z,55.9
2023-02-23T06:56:00.544Z,58.0
2023-02-23T06:57:59.959Z,60.5
2023-02-23T07:00:00.719Z,64.2
2023-02-23T07:01:59.387Z,61.8
2023-02-23T07:03:58.898Z,58.3
2023-02-23T07:05:58.644Z,57.1
2023-02-23T07:07:58.159Z,55.6
2023-02-23T07:09:57.788Z,56.2
2023-02-23T07:11:58.663Z,58.9
2023-02-23T07:13:57.718Z,58.0
2023-02-23T07:15:56.974Z,59.4
2023-02-23T07:17:56.562Z,56.7
2023-02-23T07:19:56.472Z,56.1
2023-02-23T07:21:55.797Z,55.3
2023-02-23T07:23:55.449Z,58.7
2023-02-23T07:25:55.601Z,60.7
2023-02-23T07:27:55.277Z,59.5
2023-02-23T07:29:54.434Z,60.5
2023-02-23T07:31:54.456Z,63.9
2023-02-23T07:33:54.267Z,62.1
2023-02-23T07:35:53.333Z,58.6
2023-02-23T07:37:54.813Z,63.4
2023-02-23T07:39:52.627Z,55.6
2023-02-23T07:41:52.178Z,64.3
2023-02-23T07:43:52.014Z,63.0
2023-02-23T07:45:51.965Z,64.0
2023-02-23T07:47:51.314Z,69.5
2023-02-23T07:49:51.074Z,69.1
2023-02-23T07:51:50.530Z,63.9
2023-02-23T07:53:50.213Z,66.6
2023-02-23T07:55:55.173Z,66.1
2023-02-23T07:57:49.732Z,66.5
2023-02-23T07:59:49.513Z,69.3
2023-02-23T08:03:49.519Z,66.4
2023-02-23T08:05:48.121Z,70.8
2023-02-23T08:07:47.783Z,69.0
2023-02-23T08:09:47.877Z,70.7
2023-02-23T08:11:47.307Z,74.1
2023-02-23T08:13:46.751Z,73.7
2023-02-23T08:15:46.678Z,69.9
2023-02-23T08:17:46.035Z,75.9
2023-02-23T08:19:45.721Z,71.7
2023-02-23T08:21:45.342Z,70.3
2023-02-23T08:23:45.218Z,71.4
2023-02-23T08:25:44.676Z,70.7
2023-02-23T08:29:44.488Z,72.1
2023-02-23T08:31:44.216Z,71.5
2023-02-23T08:33:43.845Z,76.5
2023-02-23T08:35:43.326Z,75.0
2023-02-23T08:37:42.523Z,76.9
2023-02-23T08:39:43.689Z,76.9
2023-02-23T08:41:42.269Z,77.5
2023-02-23T08:43:41.993Z,78.7
2023-02-23T08:45:41.215Z,81.1
2023-02-23T08:49:40.558Z,81.3
2023-02-23T08:51:40.470Z,78.1
2023-02-23T08:53:40.119Z,85.1
2023-02-23T08:55:39.505Z,83.1
2023-02-23T08:57:39.086Z,79.2
2023-02-23T08:59:40.175Z,84.7
2023-02-23T09:01:38.638Z,85.6
2023-02-23T09:03:40.210Z,89.1
2023-02-23T09:05:38.687Z,81.4
2023-02-23T09:07:39.094Z,86.9
2023-02-23T09:11:36.712Z,91.9
2023-02-23T09:13:36.544Z,94.6
2023-02-23T09:15:37.644Z,94.0
2023-02-23T09:17:36.674Z,92.9
2023-02-23T09:19:35.405Z,93.0
2023-02-23T09:21:35.247Z,91.3
2023-02-23T09:23:35.545Z,90.5
2023-02-23T09:25:42.191Z,89.5
2023-02-23T09:27:33.878Z,91.1
2023-02-23T09:29:35.954Z,87.1
2023-02-23T09:31:33.624Z,88.6
2023-02-23T09:33:32.937Z,94.5
2023-02-23T09:35:35.228Z,92.1
2023-02-23T09:37:32.258Z,87.5
2023-02-23T09:39:38.129Z,89.8
2023-02-23T09:41:51.220Z,94.8
2023-02-23T09:43:41.517Z,95.0
2023-02-23T09:45:38.340Z,88.0
2023-02-23T09:47:40.212Z,89.5
2023-02-23T09:49:36.969Z,87.6
2023-02-23T09:51:36.453Z,97.1
2023-02-23T09:53:36.000Z,90.7
2023-02-23T09:55:29.794Z,84.3
2023-02-23T09:57:36.078Z,86.1
2023-02-23T09:59:30.333Z,86.1
2023-02-23T10:01:44.930Z,89.9
2023-02-23T10:03:30.793Z,87.4
2023-02-23T10:05:31.934Z,89.0
2023-02-23T10:07:41.243Z,89.7
2023-02-23T10:09:41.532Z,86.7
2023-02-23T10:11:33.317Z,81.8
2023-02-23T10:13:38.660Z,78.7
2023-02-23T10:15:36.179Z,81.0
2023-02-23T10:17:38.251Z,82.9
2023-02-23T10:19:34.106Z,83.6
2023-02-23T10:21:32.571Z,79.7
2023-02-23T10:23:31.353Z,76.6
2023-02-23T10:25:27.686Z,81.7
2023-02-23T10:27:31.580Z,76.6
2023-02-23T10:29:28.780Z,77.9
2023-02-23T10:31:27.786Z,76.6
2023-02-23T10:35:22.834Z,69.3
2023-02-23T10:37:22.788Z,72.9
2023-02-23T10:39:21.583Z,73.6
2023-02-23T10:41:22.234Z,69.6
2023-02-23T10:43:21.143Z,67.5
2023-02-23T10:45:22.664Z,63.2
2023-02-23T10:47:24.232Z,64.0
2023-02-23T10:49:24.521Z,62.4
2023-02-23T10:51:25.414Z,62.7
2023-02-23T10:53:23.414Z,61.4
2023-02-23T10:55:23.649Z,58.0
2023-02-23T10:57:20.814Z,58.9
2023-02-23T10:59:19.334Z,55.3
2023-02-23T11:01:32.585Z,55.7
2023-02-23T11:03:24.509Z,53.2
2023-02-23T11:07:18.571Z,47.4
2023-02-23T11:09:33.041Z,50.4
2023-02-23T11:13:20.641Z,46.3
2023-02-23T11:15:39.391Z,47.7
2023-02-23T11:17:27.628Z,42.3
2023-02-23T11:19:23.198Z,42.4
2023-02-23T11:21:22.641Z,42.2
2023-02-23T11:23:20.907Z,41.6
2023-02-23T11:25:24.852Z,43.6
2023-02-23T11:27:20.257Z,41.6
2023-02-23T11:29:18.607Z,41.9
2023-02-23T11:31:16.598Z,38.9
2023-02-23T11:33:17.855Z,40.9
2023-02-23T11:35:25.995Z,42.2
2023-02-23T11:37:19.488Z,38.5
2023-02-23T11:39:19.369Z,39.7
2023-02-23T11:41:21.357Z,38.0
2023-02-23T11:43:15.515Z,39.4
2023-02-23T11:45:15.255Z,39.4
2023-02-23T11:47:21.668Z,38.7
2023-02-23T11:49:19.460Z,37.5
2023-02-23T11:51:09.231Z,38.7
2023-02-23T11:53:14.475Z,39.5
2023-02-23T11:55:17.497Z,39.1
2023-02-23T11:57:08.436Z,39.0
2023-02-23T11:59:17.311Z,38.4
2023-02-23T12:01:12.544Z,39.0
2023-02-23T12:03:20.835Z,38.1
2023-02-23T12:05:16.244Z,37.7
2023-02-23T12:07:21.662Z,40.7
2023-02-23T12:09:17.452Z,37.1
2023-02-23T12:11:12.656Z,39.8
2023-02-23T12:13:22.154Z,37.5
2023-02-23T12:15:13.851Z,39.4
2023-02-23T12:17:13.166Z,40.9
2023-02-23T12:19:19.581Z,40.8
2023-02-23T12:21:17.893Z,39.1
2023-02-23T12:23:09.798Z,39.3
2023-02-23T12:25:13.185Z,45.5
2023-02-23T12:27:11.894Z,42.7
2023-02-23T12:31:15.865Z,42.4
2023-02-23T12:35:10.134Z,42.9
2023-02-23T12:37:15.692Z,42.5
2023-02-23T12:39:07.161Z,42.3
2023-02-23T12:41:09.534Z,45.1
2023-02-23T12:43:11.055Z,45.7
2023-02-23T12:45:05.562Z,46.7
2023-02-23T12:47:06.837Z,48.6
2023-02-23T12:49:05.664Z,51.9
2023-02-23T12:51:04.483Z,49.7
2023-02-23T12:53:06.095Z,50.6
2023-02-23T12:54:59.909Z,55.2
2023-02-23T12:57:13.589Z,53.4
2023-02-23T12:59:13.765Z,51.0
2023-02-23T13:01:02.877Z,51.7
2023-02-23T13:03:17.553Z,49.6
2023-02-23T13:05:12.025Z,51.1
2023-02-23T13:07:05.478Z,49.4
2023-02-23T13:09:05.793Z,53.7
2023-02-23T13:11:05.401Z,51.3
2023-02-23T13:13:11.942Z,52.9
2023-02-23T13:15:03.007Z,53.3
2023-02-23T13:17:01.698Z,55.0
2023-02-23T13:19:08.872Z,56.1
2023-02-23T13:21:02.812Z,54.7
2023-02-23T13:23:02.270Z,55.8
2023-02-23T13:25:00.860Z,56.0
2023-02-23T13:27:00.348Z,53.5
2023-02-23T13:28:59.476Z,55.8
2023-02-23T13:30:54.218Z,55.4
2023-02-23T13:32:53.771Z,51.8
2023-02-23T13:34:55.776Z,54.3
2023-02-23T13:36:53.148Z,51.4
2023-02-23T13:39:18.738Z,51.8
2023-02-23T13:40:58.913Z,50.3
2023-02-23T13:43:07.775Z,50.2
2023-02-23T13:45:00.922Z,54.1
2023-02-23T13:46:56.070Z,50.5
2023-02-23T13:48:58.827Z,53.0
2023-02-23T13:50:56.353Z,51.4
2023-02-23T13:52:57.621Z,56.2
2023-02-23T13:54:55.410Z,52.8
2023-02-23T13:56:53.750Z,50.2
2023-02-23T13:58:52.638Z,52.5
2023-02-23T14:01:02.214Z,51.6
2023-02-23T14:02:49.679Z,50.3
2023-02-23T14:04:48.824Z,49.5
2023-02-23T14:06:55.544Z,50.2
2023-02-23T14:08:53.442Z,50.9
2023-02-23T14:10:46.985Z,47.2
2023-02-23T14:13:05.760Z,48.7
2023-02-23T14:14:46.412Z,51.6
2023-02-23T14:17:06.514Z,51.7
2023-02-23T14:18:57.003Z,49.7
2023-02-23T14:20:53.298Z,52.2
2023-02-23T14:23:04.660Z,51.0
2023-02-23T14:24:44.715Z,48.5
2023-02-23T14:26:55.582Z,47.5
2023-02-23T14:28:48.150Z,48.4
2023-02-23T14:30:50.023Z,47.8
2023-02-23T14:32:46.557Z,46.8
2023-02-23T14:34:52.312Z,49.9
2023-02-23T14:36:43.643Z,49.4
2023-02-23T14:38:48.280Z,48.6
2023-02-23T14:40:46.096Z,48.3
2023-02-23T14:42:46.626Z,49.2
2023-02-23T14:44:43.997Z,51.8
2023-02-23T14:48:44.620Z,54.7
2023-02-23T14:50:41.176Z,53.4
2023-02-23T14:52:40.952Z,60.2
2023-02-23T14:54:40.693Z,59.0
2023-02-23T14:56:45.953Z,63.6
2023-02-23T14:58:39.090Z,62.9
2023-02-23T15:00:41.549Z,65.2
2023-02-23T15:02:43.167Z,64.6
2023-02-23T15:04:38.739Z,60.1
2023-02-23T15:06:42.312Z,60.0
2023-02-23T15:08:43.788Z,61.7
2023-02-23T15:10:41.194Z,66.6
2023-02-23T15:12:37.762Z,63.1
2023-02-23T15:14:37.870Z,61.0
2023-02-23T15:16:36.622Z,58.2
2023-02-23T15:20:35.834Z,59.8
2023-02-23T15:22:37.871Z,56.4
2023-02-23T15:24:42.706Z,58.3
2023-02-23T15:26:36.414Z,55.8
2023-02-23T15:28:34.214Z,56.8
2023-02-23T15:30:44.909Z,55.8
2023-02-23T15:32:37.325Z,55.6
2023-02-23T15:34:33.852Z,56.5
2023-02-23T15:36:34.023Z,55.8
2023-02-23T15:40:32.349Z,50.7
2023-02-23T15:42:36.832Z,53.2
2023-02-23T15:44:43.831Z,52.0
2023-02-23T15:46:33.245Z,49.2
2023-02-23T15:48:44.868Z,45.8
2023-02-23T15:50:37.053Z,42.3
2023-02-23T15:52:34.079Z,39.3
2023-02-23T15:54:34.334Z,38.0
2023-02-23T15:56:29.920Z,40.0
2023-02-23T15:58:31.387Z,40.4
2023-02-23T16:00:39.982Z,38.2
2023-02-23T16:02:29.183Z,41.2
2023-02-23T16:04:31.634Z,37.3
2023-02-23T16:06:33.144Z,38.1
2023-02-23T16:08:28.770Z,35.7
2023-02-23T16:10:28.874Z,36.7
2023-02-23T16:12:31.652Z,35.1
2023-02-23T16:14:32.984Z,32.1
2023-02-23T16:16:26.807Z,32.2
2023-02-23T16:18:36.093Z,29.9
2023-02-23T16:20:33.670Z,29.3
2023-02-23T16:22:27.854Z,29.5
2023-02-23T16:24:27.948Z,31.7
2023-02-23T16:26:28.478Z,27.2
2023-02-23T16:28:29.521Z,29.8
2023-02-23T16:30:36.072Z,27.4
2023-02-23T16:32:24.299Z,27.7
2023-02-23T16:34:26.106Z,26.1
2023-02-23T16:36:32.425Z,25.3
2023-02-23T16:38:25.230Z,22.9
2023-02-23T16:40:23.030Z,25.2
2023-02-23T16:42:27.568Z,24.5
2023-02-23T16:44:26.331Z,21.8
2023-02-23T16:46:24.683Z,20.7
2023-02-23T16:48:23.224Z,21.9
2023-02-23T16:50:23.493Z,20.5
2023-02-23T16:52:22.889Z,21.3
2023-02-23T16:54:20.526Z,20.8
2023-02-23T16:56:21.535Z,18.4
2023-02-23T16:58:22.366Z,19.5
2023-02-23T17:00:22.282Z,21.1
2023-02-23T17:02:21.781Z,18.9
2023-02-23T17:04:19.949Z,26.2
2023-02-23T17:06:19.416Z,21.0
2023-02-23T17:08:18.163Z,19.6
2023-02-23T17:10:24.050Z,22.1
2023-02-23T17:12:19.069Z,20.9
2023-02-23T17:16:16.902Z,21.5
2023-02-23T17:18:17.561Z,19.7
2023-02-23T17:20:20.359Z,21.9
2023-02-23T17:22:15.981Z,21.7
2023-02-23T17:24:15.870Z,21.4
2023-02-23T17:26:16.183Z,19.0
2023-02-23T17:28:14.823Z,22.9
2023-02-23T17:30:14.761Z,20.2
2023-02-23T17:32:14.074Z,21.2
2023-02-23T17:34:13.777Z,19.4
2023-02-23T17:36:14.911Z,21.3
2023-02-23T17:38:13.934Z,22.0
2023-02-23T17:40:15.450Z,19.7
2023-02-23T17:42:13.599Z,19.8
2023-02-23T17:44:12.084Z,21.2
2023-02-23T17:46:12.760Z,19.9
2023-02-23T17:48:11.157Z,20.0
2023-02-23T17:50:10.898Z,20.1
2023-02-23T17:52:10.699Z,19.3
2023-02-23T17:54:10.430Z,21.9
2023-02-23T17:56:10.425Z,19.2
2023-02-23T18:02:13.519Z,19.2
2023-02-23T18:04:08.472Z,18.5
2023-02-23T18:06:10.410Z,20.4
2023-02-23T18:08:07.788Z,18.2
2023-02-23T18:10:08.317Z,16.3
2023-02-23T18:12:07.850Z,16.7
2023-02-23T18:14:08.624Z,16.5
2023-02-23T18:16:08.645Z,19.0
2023-02-23T18:18:06.457Z,15.3
2023-02-23T18:20:06.543Z,17.0
2023-02-23T18:22:05.683Z,15.8
2023-02-23T18:24:05.556Z,19.3
2023-02-23T18:26:06.467Z,17.7
2023-02-23T18:28:04.555Z,17.8
2023-02-23T18:30:05.035Z,18.3
2023-02-23T18:32:06.799Z,19.4
2023-02-23T18:34:03.342Z,18.7
2023-02-23T18:38:04.150Z,19.0
2023-02-23T18:40:04.512Z,22.8
2023-02-23T18:42:03.259Z,21.7
2023-02-23T18:46:03.975Z,26.1
2023-02-23T18:48:01.023Z,28.0
2023-02-23T18:50:00.716Z,25.4
2023-02-23T18:52:00.269Z,23.6
2023-02-23T18:54:02.139Z,27.0
2023-02-23T18:56:02.638Z,32.1
2023-02-23T18:57:59.271Z,28.6
2023-02-23T18:59:58.852Z,30.5
2023-02-23T19:01:58.899Z,31.5
2023-02-23T19:04:00.845Z,32.7
2023-02-23T19:05:58.132Z,28.8
2023-02-23T19:07:57.766Z,21.5
2023-02-23T19:10:01.009Z,23.9
2023-02-23T19:11:57.302Z,24.1
2023-02-23T19:15:57.889Z,23.6
2023-02-23T19:17:56.027Z,24.2
2023-02-23T19:19:55.672Z,21.5
2023-02-23T19:21:57.728Z,21.9
2023-02-23T19:23:56.712Z,25.7
2023-02-23T19:25:54.441Z,23.6
2023-02-23T19:27:54.796Z,24.0
2023-02-23T19:29:54.012Z,24.7
2023-02-23T19:31:53.801Z,22.5
2023-02-23T19:33:55.328Z,22.1
2023-02-23T19:35:52.813Z,23.0
2023-02-23T19:37:53.437Z,21.1
2023-02-23T19:39:53.006Z,21.7
2023-02-23T19:41:52.088Z,24.2
2023-02-23T19:43:51.390Z,21.8
2023-02-23T19:45:51.073Z,21.1
2023-02-23T19:47:51.698Z,22.0
2023-02-23T19:49:50.443Z,21.6
2023-02-23T19:51:51.924Z,22.3
2023-02-23T19:53:52.285Z,21.9
2023-02-23T19:55:58.093Z,19.8
2023-02-23T19:57:50.382Z,21.6
2023-02-23T19:59:48.640Z,21.9
2023-02-23T20:01:50.306Z,23.3
2023-02-23T20:03:54.278Z,20.3
2023-02-23T20:05:47.831Z,24.2
2023-02-23T20:07:47.563Z,20.2
2023-02-23T20:09:47.149Z,22.4
2023-02-23T20:11:47.337Z,21.9
2023-02-23T20:13:46.428Z,20.8
2023-02-23T20:15:46.226Z,22.6
2023-02-23T20:17:45.831Z,20.0
2023-02-23T20:19:45.322Z,22.5
2023-02-23T20:21:44.919Z,21.3
2023-02-23T20:23:46.079Z,20.7
2023-02-23T20:25:44.299Z,22.4
2023-02-23T20:27:43.990Z,20.5
2023-02-23T20:29:44.365Z,22.5
2023-02-23T20:31:49.471Z,23.8
2023-02-23T20:33:43.276Z,24.3
2023-02-23T20:35:42.594Z,23.2
2023-02-23T20:37:42.675Z,23.9
2023-02-23T20:39:41.933Z,24.9
2023-02-23T20:41:43.046Z,22.2
2023-02-23T20:43:42.767Z,24.6
2023-02-23T20:45:40.973Z,25.3
2023-02-23T20:47:41.048Z,26.4
2023-02-23T20:51:41.726Z,33.0
2023-02-23T20:53:40.903Z,30.9
2023-02-23T20:55:39.023Z,31.1
2023-02-23T20:57:38.736Z,35.6
2023-02-23T20:59:38.418Z,30.3
2023-02-23T21:01:39.126Z,32.2
2023-02-23T21:03:37.572Z,29.6
2023-02-23T21:05:39.412Z,32.2
2023-02-23T21:07:37.150Z,31.2
2023-02-23T21:09:39.071Z,30.8
2023-02-23T21:11:36.090Z,25.9
2023-02-23T21:13:36.057Z,27.2
2023-02-23T21:15:36.095Z,25.9
2023-02-23T21:17:35.692Z,28.8
2023-02-23T21:19:35.376Z,28.2
2023-02-23T21:21:38.283Z,28.0
2023-02-23T21:23:34.225Z,27.7
2023-02-23T21:25:33.915Z,27.5
2023-02-23T21:27:33.327Z,31.6
2023-02-23T21:29:33.238Z,31.9
2023-02-23T21:31:32.609Z,30.1
2023-02-23T21:33:32.274Z,37.3
2023-02-23T21:35:34.147Z,40.4
2023-02-23T21:39:31.168Z,35.7
2023-02-23T21:41:32.707Z,41.3
2023-02-23T21:43:33.720Z,35.8
2023-02-23T21:45:29.992Z,46.3
2023-02-23T21:47:33.019Z,40.0
2023-02-23T21:49:29.647Z,41.6
2023-02-23T21:51:29.524Z,46.5
2023-02-23T21:53:29.489Z,48.6
2023-02-23T21:55:28.250Z,45.8
2023-02-23T21:57:29.320Z,45.6
2023-02-23T21:59:27.545Z,41.3
2023-02-23T22:01:29.544Z,45.3
2023-02-23T22:03:28.370Z,48.3
2023-02-23T22:05:26.610Z,39.5
2023-02-23T22:07:28.189Z,38.5
2023-02-23T22:09:25.860Z,40.7
2023-02-23T22:11:26.658Z,42.0
2023-02-23T22:13:24.989Z,43.2
2023-02-23T22:15:26.573Z,39.0
2023-02-23T22:17:24.612Z,42.3
2023-02-23T22:19:24.013Z,45.0
2023-02-23T22:21:23.968Z,40.5
2023-02-23T22:23:23.132Z,41.3
2023-02-23T22:25:22.648Z,41.4
2023-02-23T22:27:22.302Z,38.5
2023-02-23T22:29:24.771Z,39.5
2023-02-23T22:31:21.873Z,39.3
2023-02-23T22:33:22.529Z,34.3
2023-02-23T22:35:20.725Z,30.5
2023-02-23T22:37:21.446Z,34.1
2023-02-23T22:39:20.032Z,34.8
2023-02-23T22:41:20.197Z,29.1
2023-02-23T22:43:20.991Z,36.2
2023-02-23T22:45:19.351Z,32.4
2023-02-23T22:47:18.452Z,32.6
2023-02-23T22:49:18.811Z,33.9
2023-02-23T22:51:18.796Z,28.9
2023-02-23T22:53:17.814Z,28.3
2023-02-23T22:55:18.245Z,28.8
2023-02-23T22:57:16.543Z,25.3
2023-02-23T22:59:16.558Z,29.2
2023-02-23T23:01:16.605Z,29.5
2023-02-23T23:03:15.425Z,27.7
2023-02-23T23:05:17.052Z,28.2
2023-02-23T23:07:14.701Z,29.6
2023-02-23T23:09:15.622Z,23.8
2023-02-23T23:11:17.401Z,22.4
2023-02-23T23:13:13.506Z,22.3
2023-02-23T23:15:13.777Z,24.5
2023-02-23T23:17:14.113Z,25.2
2023-02-23T23:21:14.207Z,24.3
2023-02-23T23:23:11.599Z,18.7
2023-02-23T23:25:13.755Z,21.6
2023-02-23T23:27:13.565Z,23.9
2023-02-23T23:29:13.387Z,23.1
2023-02-23T23:31:10.145Z,23.5
2023-02-23T23:33:10.816Z,23.2
2023-02-23T23:35:10.152Z,21.5
2023-02-23T23:37:09.842Z,20.0
2023-02-23T23:39:11.219Z,21.0
2023-02-23T23:41:12.697Z,24.6
2023-02-23T23:43:07.917Z,22.4
2023-02-23T23:45:08.929Z,18.4
2023-02-23T23:47:07.016Z,22.1
2023-02-23T23:49:10.069Z,23.0
2023-02-23T23:51:06.183Z,17.5
2023-02-23T23:53:06.725Z,16.6
2023-02-23T23:57:05.709Z,18.6
2023-02-23T23:59:06.422Z,25.3
